createdAt,value
2017-12-12T00:01:42.818Z,33.35
2017-12-12T00:04:10.230Z,33.92
2017-12-12T00:06:37.650Z,35.70
2017-12-12T00:09:05.058Z,34.88
2017-12-12T00:11:32.489Z,32.15
2017-12-12T00:13:59.901Z,32.95
2017-12-12T00:16:27.305Z,31.60
2017-12-12T00:18:54.722Z,30.62
2017-12-12T00:21:22.135Z,29.87
2017-12-12T00:23:49.547Z,29.98
2017-12-12T00:26:16.961Z,28.42
2017-12-12T00:28:44.390Z,28.70
2017-12-12T00:31:11.801Z,28.55
2017-12-12T00:33:39.212Z,27.90
2017-12-12T00:36:06.622Z,27.98
2017-12-12T00:38:34.034Z,28.15
2017-12-12T00:41:01.451Z,27.48
2017-12-12T00:43:28.858Z,27.08
2017-12-12T00:45:56.278Z,27.90
2017-12-12T00:48:23.686Z,27.33
2017-12-12T00:50:51.109Z,28.35
2017-12-12T00:53:18.518Z,29.58
2017-12-12T00:55:45.934Z,31.00
2017-12-12T00:58:13.350Z,28.75
2017-12-12T01:00:40.775Z,29.25
2017-12-12T01:03:08.195Z,29.60
2017-12-12T01:05:35.603Z,28.55
2017-12-12T01:08:03.022Z,29.58
2017-12-12T01:10:30.434Z,29.85
2017-12-12T01:12:57.905Z,31.52
2017-12-12T01:15:25.305Z,32.25
2017-12-12T01:17:52.726Z,29.05
2017-12-12T01:20:20.137Z,32.22
2017-12-12T01:22:47.547Z,29.00
2017-12-12T01:25:14.970Z,30.50
2017-12-12T01:27:42.382Z,30.33
2017-12-12T01:30:09.805Z,30.00
2017-12-12T01:32:37.214Z,28.48
2017-12-12T01:35:04.633Z,30.30
2017-12-12T01:37:32.058Z,30.35
2017-12-12T01:39:59.461Z,29.92
2017-12-12T01:42:26.882Z,30.50
2017-12-12T01:44:54.299Z,30.10
2017-12-12T01:47:21.722Z,27.95
2017-12-12T01:49:49.175Z,28.62
2017-12-12T01:52:16.598Z,29.35
2017-12-12T01:54:44.006Z,28.35
2017-12-12T01:57:11.448Z,28.00
2017-12-12T01:59:38.853Z,29.27
2017-12-12T02:02:06.266Z,29.10
2017-12-12T02:04:33.679Z,28.33
2017-12-12T02:07:01.094Z,30.00
2017-12-12T02:09:28.513Z,27.90
2017-12-12T02:11:55.926Z,26.30
2017-12-12T02:14:23.342Z,27.35
2017-12-12T02:16:50.758Z,27.98
2017-12-12T02:19:18.185Z,28.62
2017-12-12T02:21:45.607Z,27.80
2017-12-12T02:24:13.021Z,27.67
2017-12-12T02:26:40.445Z,28.17
2017-12-12T02:29:07.856Z,27.50
2017-12-12T02:31:35.267Z,28.67
2017-12-12T02:34:02.675Z,25.12
2017-12-12T02:36:30.098Z,21.50
2017-12-12T02:38:57.519Z,22.95
2017-12-12T02:41:24.950Z,21.60
2017-12-12T02:43:52.383Z,23.65
2017-12-12T02:46:19.791Z,22.08
2017-12-12T02:48:47.211Z,22.17
2017-12-12T02:51:14.629Z,23.67
2017-12-12T02:53:42.042Z,23.35
2017-12-12T02:56:09.458Z,23.38
2017-12-12T02:58:36.877Z,23.42
2017-12-12T03:01:04.285Z,22.15
2017-12-12T03:03:31.698Z,21.50
2017-12-12T03:05:59.118Z,21.75
2017-12-12T03:08:26.535Z,22.13
2017-12-12T03:10:53.946Z,23.08
2017-12-12T03:13:21.357Z,22.80
2017-12-12T03:15:48.790Z,22.77
2017-12-12T03:18:16.202Z,23.00
2017-12-12T03:20:43.617Z,22.10
2017-12-12T03:23:11.029Z,22.15
2017-12-12T03:25:38.438Z,23.45
2017-12-12T03:28:05.858Z,20.83
2017-12-12T03:30:33.270Z,22.15
2017-12-12T03:33:00.697Z,22.10
2017-12-12T03:38:00.796Z,20.95
2017-12-12T03:40:28.206Z,22.33
2017-12-12T03:42:55.609Z,22.73
2017-12-12T03:45:23.023Z,22.77
2017-12-12T03:47:50.433Z,24.30
2017-12-12T03:50:17.849Z,22.25
2017-12-12T03:52:45.259Z,23.73
2017-12-12T03:55:12.681Z,23.33
2017-12-12T03:57:40.090Z,24.02
2017-12-12T04:00:07.523Z,22.62
2017-12-12T04:02:34.938Z,23.50
2017-12-12T04:05:02.351Z,22.80
2017-12-12T04:07:29.774Z,23.52
2017-12-12T04:09:57.187Z,22.45
2017-12-12T04:12:24.613Z,22.80
2017-12-12T04:14:52.024Z,23.42
2017-12-12T04:17:19.434Z,24.35
2017-12-12T04:19:46.854Z,23.95
2017-12-12T04:22:14.266Z,23.98
2017-12-12T04:24:41.687Z,23.90
2017-12-12T04:27:09.095Z,25.02
2017-12-12T04:29:36.516Z,24.33
2017-12-12T04:32:03.926Z,23.73
2017-12-12T04:34:31.341Z,24.25
2017-12-12T04:36:58.757Z,25.20
2017-12-12T04:39:26.186Z,25.52
2017-12-12T04:41:53.600Z,25.30
2017-12-12T04:44:21.010Z,25.12
2017-12-12T04:46:48.430Z,25.80
2017-12-12T04:49:15.841Z,24.87
2017-12-12T04:51:43.253Z,24.45
2017-12-12T04:54:10.675Z,23.90
2017-12-12T04:56:38.086Z,23.90
2017-12-12T04:59:05.510Z,26.20
2017-12-12T05:01:32.927Z,23.87
2017-12-12T05:04:00.365Z,22.37
2017-12-12T05:06:27.782Z,23.90
2017-12-12T05:08:55.194Z,23.20
2017-12-12T05:11:22.609Z,22.13
2017-12-12T05:13:50.027Z,23.05
2017-12-12T05:16:17.489Z,23.15
2017-12-12T05:18:44.905Z,22.25
2017-12-12T05:21:12.329Z,22.45
2017-12-12T05:23:39.766Z,21.95
2017-12-12T05:26:07.174Z,22.33
2017-12-12T05:28:34.599Z,22.15
2017-12-12T05:31:02.038Z,23.33
2017-12-12T05:33:29.462Z,22.52
2017-12-12T05:35:56.886Z,22.05
2017-12-12T05:38:24.315Z,22.92
2017-12-12T05:40:51.727Z,22.40
2017-12-12T05:43:19.142Z,21.77
2017-12-12T05:45:46.575Z,20.52
2017-12-12T05:48:13.989Z,20.77
2017-12-12T05:50:41.407Z,23.10
2017-12-12T05:53:08.817Z,21.48
2017-12-12T05:55:36.256Z,22.83
2017-12-12T05:58:03.655Z,22.40
2017-12-12T06:00:31.062Z,21.83
2017-12-12T06:02:58.483Z,22.23
2017-12-12T06:05:25.893Z,22.02
2017-12-12T06:07:53.309Z,22.05
2017-12-12T06:10:20.719Z,21.50
2017-12-12T06:12:48.139Z,21.87
2017-12-12T06:15:15.545Z,19.95
2017-12-12T06:17:42.954Z,22.87
2017-12-12T06:20:10.370Z,21.87
2017-12-12T06:22:37.781Z,22.42
2017-12-12T06:25:05.203Z,22.33
2017-12-12T06:27:32.609Z,23.00
2017-12-12T06:30:00.034Z,22.80
2017-12-12T06:32:27.453Z,22.83
2017-12-12T06:34:54.875Z,24.45
2017-12-12T06:37:22.338Z,24.05
2017-12-12T06:39:49.737Z,22.83
2017-12-12T06:42:17.162Z,21.95
2017-12-12T06:44:44.570Z,23.12
2017-12-12T06:47:11.989Z,22.30
2017-12-12T06:49:39.401Z,20.05
2017-12-12T06:52:06.818Z,24.55
2017-12-12T06:54:34.234Z,23.98
2017-12-12T06:57:01.646Z,22.98
2017-12-12T06:59:29.067Z,24.33
2017-12-12T07:01:56.498Z,24.00
2017-12-12T07:04:23.909Z,24.23
2017-12-12T07:06:51.326Z,23.73
2017-12-12T07:09:18.743Z,21.80
2017-12-12T07:11:46.158Z,23.60
2017-12-12T07:14:13.569Z,22.00
2017-12-12T07:16:41.003Z,23.35
2017-12-12T07:19:08.409Z,24.67
2017-12-12T07:21:35.843Z,24.67
2017-12-12T07:24:03.270Z,22.17
2017-12-12T07:26:30.686Z,20.73
2017-12-12T07:28:58.110Z,23.35
2017-12-12T07:31:25.562Z,23.77
2017-12-12T07:33:52.983Z,23.52
2017-12-12T07:36:20.394Z,25.98
2017-12-12T07:38:47.821Z,24.12
2017-12-12T07:41:15.242Z,22.45
2017-12-12T07:43:42.646Z,26.67
2017-12-12T07:46:10.061Z,26.00
2017-12-12T07:48:37.477Z,25.70
2017-12-12T07:51:04.894Z,24.10
2017-12-12T07:53:32.318Z,26.52
2017-12-12T07:55:59.738Z,25.52
2017-12-12T07:58:27.161Z,27.98
2017-12-12T08:00:54.577Z,26.45
2017-12-12T08:03:22.001Z,25.80
2017-12-12T08:05:49.420Z,25.23
2017-12-12T08:08:16.831Z,27.27
2017-12-12T08:10:44.254Z,28.58
2017-12-12T08:13:11.669Z,25.90
2017-12-12T08:15:39.086Z,26.17
2017-12-12T08:18:06.498Z,23.80
2017-12-12T08:20:33.918Z,24.75
2017-12-12T08:23:01.333Z,23.25
2017-12-12T08:25:28.744Z,24.05
2017-12-12T08:27:56.166Z,23.42
2017-12-12T08:30:23.605Z,24.00
2017-12-12T08:32:51.030Z,23.05
2017-12-12T08:35:18.458Z,23.15
2017-12-12T08:37:45.921Z,20.88
2017-12-12T08:40:13.340Z,22.17
2017-12-12T08:42:40.763Z,21.77
2017-12-12T08:45:08.186Z,20.77
2017-12-12T08:47:35.602Z,20.85
2017-12-12T08:50:03.017Z,19.55
2017-12-12T08:52:30.438Z,18.80
2017-12-12T08:54:57.885Z,19.27
2017-12-12T08:57:25.384Z,19.70
2017-12-12T08:59:52.802Z,20.45
2017-12-12T09:02:20.229Z,18.48
2017-12-12T09:04:47.690Z,19.90
2017-12-12T09:07:15.123Z,20.15
2017-12-12T09:09:42.549Z,18.70
2017-12-12T09:12:09.989Z,19.50
2017-12-12T09:14:37.415Z,19.15
2017-12-12T09:17:04.863Z,21.65
2017-12-12T09:19:32.303Z,21.62
2017-12-12T09:21:59.723Z,21.70
2017-12-12T09:24:27.154Z,21.20
2017-12-12T09:26:54.565Z,19.27
2017-12-12T09:29:21.982Z,18.33
2017-12-12T09:31:49.409Z,19.80
2017-12-12T09:34:16.842Z,20.40
2017-12-12T09:36:44.264Z,19.52
2017-12-12T09:39:11.702Z,19.95
2017-12-12T09:41:39.114Z,20.98
2017-12-12T09:44:06.539Z,19.98
2017-12-12T09:46:33.966Z,19.50
2017-12-12T09:49:01.394Z,18.77
2017-12-12T09:51:28.813Z,19.98
2017-12-12T09:53:56.249Z,18.83
2017-12-12T09:56:23.673Z,18.83
2017-12-12T09:58:51.941Z,19.73
2017-12-12T10:01:19.357Z,19.00
2017-12-12T10:03:46.797Z,20.00
2017-12-12T10:06:14.206Z,19.87
2017-12-12T10:08:41.629Z,20.60
2017-12-12T10:11:09.077Z,20.20
2017-12-12T10:13:36.509Z,19.42
2017-12-12T10:16:03.925Z,19.10
2017-12-12T10:18:31.374Z,19.50
2017-12-12T10:20:58.815Z,20.58
2017-12-12T10:23:26.245Z,20.20
2017-12-12T10:25:53.674Z,18.60
2017-12-12T10:28:21.090Z,18.12
2017-12-12T10:30:48.517Z,18.00
2017-12-12T10:33:15.933Z,18.70
2017-12-12T10:35:43.351Z,17.37
2017-12-12T10:38:10.770Z,18.35
2017-12-12T10:40:38.200Z,17.23
2017-12-12T10:43:05.622Z,17.67
2017-12-12T10:45:33.022Z,17.70
2017-12-12T10:48:00.457Z,18.23
2017-12-12T10:50:27.917Z,18.87
2017-12-12T10:52:55.289Z,18.90
2017-12-12T10:55:22.713Z,18.77
2017-12-12T10:57:50.136Z,18.90
2017-12-12T11:00:17.550Z,21.03
2017-12-12T11:02:44.958Z,18.80
2017-12-12T11:05:12.392Z,18.40
2017-12-12T11:07:39.806Z,18.80
2017-12-12T11:10:07.219Z,18.93
2017-12-12T11:12:34.638Z,19.50
2017-12-12T11:15:02.054Z,19.40
2017-12-12T11:17:29.474Z,20.40
2017-12-12T11:19:56.890Z,18.98
2017-12-12T11:22:24.316Z,18.83
2017-12-12T11:24:51.727Z,19.60
2017-12-12T11:27:19.143Z,17.95
2017-12-12T11:29:46.554Z,17.20
2017-12-12T11:32:13.978Z,16.42
2017-12-12T11:34:41.414Z,17.62
2017-12-12T11:37:08.834Z,16.70
2017-12-12T11:39:36.266Z,16.08
2017-12-12T11:42:03.697Z,17.40
2017-12-12T11:44:31.106Z,17.60
2017-12-12T11:46:58.534Z,17.70
2017-12-12T11:49:25.945Z,17.30
2017-12-12T11:51:53.370Z,17.20
2017-12-12T11:54:20.797Z,17.90
2017-12-12T11:56:48.230Z,18.00
2017-12-12T11:59:15.654Z,17.45
2017-12-12T12:01:43.077Z,16.15
2017-12-12T12:04:10.498Z,16.25
2017-12-12T12:06:37.917Z,15.95
2017-12-12T12:09:05.346Z,14.23
2017-12-12T12:11:32.758Z,15.23
2017-12-12T12:14:00.186Z,15.38
2017-12-12T12:16:27.604Z,15.23
2017-12-12T12:18:55.010Z,15.10
2017-12-12T12:21:22.438Z,15.23
2017-12-12T12:23:49.851Z,15.20
2017-12-12T12:26:17.277Z,15.98
2017-12-12T12:28:44.698Z,16.30
2017-12-12T12:31:12.130Z,16.20
2017-12-12T12:33:39.538Z,14.27
2017-12-12T12:36:06.961Z,14.77
2017-12-12T12:38:34.389Z,15.25
2017-12-12T12:41:01.809Z,15.73
2017-12-12T12:43:29.237Z,15.23
2017-12-12T12:45:56.709Z,15.30
2017-12-12T12:48:24.148Z,16.90
2017-12-12T12:50:51.550Z,15.70
2017-12-12T12:53:18.955Z,12.87
2017-12-12T12:55:46.377Z,11.90
2017-12-12T12:58:13.801Z,12.75
2017-12-12T13:00:41.277Z,12.40
2017-12-12T13:03:08.671Z,12.50
2017-12-12T13:05:36.096Z,12.03
2017-12-12T13:08:03.507Z,14.00
2017-12-12T13:10:30.915Z,13.23
2017-12-12T13:12:58.330Z,14.43
2017-12-12T13:15:25.742Z,14.25
2017-12-12T13:17:53.152Z,14.80
2017-12-12T13:20:20.553Z,14.70
2017-12-12T13:22:47.975Z,13.40
2017-12-12T13:25:15.393Z,14.60
2017-12-12T13:27:42.829Z,13.60
2017-12-12T13:30:10.234Z,12.87
2017-12-12T13:32:37.638Z,12.83
2017-12-12T13:35:05.066Z,12.80
2017-12-12T13:37:32.590Z,12.10
2017-12-12T13:40:01.254Z,15.33
2017-12-12T13:42:28.667Z,14.60
2017-12-12T13:44:56.194Z,13.90
2017-12-12T13:47:23.666Z,14.17
2017-12-12T13:49:51.127Z,13.60
2017-12-12T13:52:18.546Z,13.40
2017-12-12T13:54:46.038Z,13.07
2017-12-12T13:57:13.533Z,14.80
2017-12-12T13:59:40.945Z,12.88
2017-12-12T14:02:08.358Z,13.13
2017-12-12T14:04:35.849Z,12.48
2017-12-12T14:07:04.068Z,11.90
2017-12-12T14:09:31.495Z,13.38
2017-12-12T14:12:00.524Z,12.80
2017-12-12T14:14:30.214Z,13.73
2017-12-12T14:16:58.257Z,13.65
2017-12-12T14:19:26.454Z,13.05
2017-12-12T14:21:54.173Z,12.80
2017-12-12T14:24:22.117Z,13.57
2017-12-12T14:26:49.582Z,14.90
2017-12-12T14:29:16.996Z,13.00
2017-12-12T14:31:44.418Z,13.67
2017-12-12T14:34:11.830Z,15.27
2017-12-12T14:36:39.250Z,16.08
2017-12-12T14:39:06.674Z,17.42
2017-12-12T14:41:34.086Z,17.37
2017-12-12T14:44:01.510Z,16.37
2017-12-12T14:46:28.923Z,16.40
2017-12-12T14:48:56.351Z,19.42
2017-12-12T14:51:23.767Z,17.92
2017-12-12T14:53:51.186Z,17.75
2017-12-12T14:56:18.606Z,18.42
2017-12-12T14:58:46.032Z,18.02
2017-12-12T15:01:13.461Z,18.50
2017-12-12T15:03:40.877Z,18.50
2017-12-12T15:06:08.309Z,18.85
2017-12-12T15:08:35.729Z,20.12
2017-12-12T15:11:03.150Z,18.45
2017-12-12T15:13:30.573Z,18.75
2017-12-12T15:15:57.986Z,16.40
2017-12-12T15:18:25.423Z,16.58
2017-12-12T15:20:52.841Z,16.23
2017-12-12T15:23:20.262Z,16.97
2017-12-12T15:25:47.674Z,16.27
2017-12-12T15:28:15.098Z,16.37
2017-12-12T15:30:42.521Z,18.95
2017-12-12T15:33:09.929Z,16.95
2017-12-12T15:35:37.407Z,15.98
2017-12-12T15:38:05.450Z,16.55
2017-12-12T15:40:35.206Z,16.52
2017-12-12T15:43:04.399Z,15.85
2017-12-12T15:45:31.809Z,16.50
2017-12-12T15:47:59.234Z,15.75
2017-12-12T15:50:26.650Z,15.90
2017-12-12T15:52:54.070Z,15.73
2017-12-12T15:55:21.498Z,17.25
2017-12-12T15:57:48.926Z,16.62
2017-12-12T16:00:16.338Z,17.02
2017-12-12T16:02:43.758Z,15.55
2017-12-12T16:05:11.259Z,16.45
2017-12-12T16:07:38.664Z,17.80
2017-12-12T16:10:06.091Z,16.65
2017-12-12T16:12:33.506Z,16.67
2017-12-12T16:15:00.944Z,16.45
2017-12-12T16:17:28.362Z,15.82
2017-12-12T16:19:55.774Z,15.23
2017-12-12T16:22:23.288Z,15.70
2017-12-12T16:24:50.703Z,16.45
2017-12-12T16:27:18.119Z,16.57
2017-12-12T16:29:45.534Z,16.95
2017-12-12T16:32:12.974Z,18.25
2017-12-12T16:34:40.410Z,18.42
2017-12-12T16:37:08.069Z,18.40
2017-12-12T16:39:35.470Z,19.20
2017-12-12T16:42:02.886Z,18.70
2017-12-12T16:44:30.317Z,18.85
2017-12-12T16:46:57.730Z,18.80
2017-12-12T16:49:25.152Z,20.30
2017-12-12T16:51:52.574Z,20.80
2017-12-12T16:54:20.002Z,21.42
2017-12-12T16:56:47.438Z,24.17
2017-12-12T16:59:14.854Z,24.77
2017-12-12T17:01:42.289Z,25.70
2017-12-12T17:04:09.718Z,24.80
2017-12-12T17:06:38.119Z,24.58
2017-12-12T17:09:05.644Z,23.50
2017-12-12T17:11:33.054Z,24.20
2017-12-12T17:14:00.486Z,23.95
2017-12-12T17:16:27.902Z,24.00
2017-12-12T17:18:55.320Z,25.17
2017-12-12T17:21:22.743Z,24.95
2017-12-12T17:23:50.190Z,27.92
2017-12-12T17:26:17.597Z,25.70
2017-12-12T17:28:45.017Z,26.62
2017-12-12T17:31:12.448Z,26.40
2017-12-12T17:33:39.901Z,27.27
2017-12-12T17:36:07.324Z,27.37
2017-12-12T17:38:34.749Z,27.67
2017-12-12T17:41:02.187Z,28.80
2017-12-12T17:43:29.604Z,27.20
2017-12-12T17:45:57.017Z,28.15
2017-12-12T17:48:24.456Z,28.48
2017-12-12T17:50:51.877Z,29.17
2017-12-12T17:53:30.067Z,27.80
2017-12-12T17:55:57.486Z,29.37
2017-12-12T17:58:24.917Z,26.90
2017-12-12T18:00:52.330Z,28.55
2017-12-12T18:03:22.930Z,27.90
2017-12-12T18:05:50.367Z,27.23
2017-12-12T18:08:17.792Z,27.23
2017-12-12T18:10:45.212Z,26.03
2017-12-12T18:13:12.622Z,27.43
2017-12-12T18:15:40.050Z,25.90
2017-12-12T18:18:08.246Z,25.00
2017-12-12T18:20:35.768Z,23.83
2017-12-12T18:23:03.209Z,25.58
2017-12-12T18:25:30.630Z,27.02
2017-12-12T18:27:58.054Z,25.30
2017-12-12T18:30:25.487Z,25.67
2017-12-12T18:32:52.918Z,25.92
2017-12-12T18:35:20.341Z,25.33
2017-12-12T18:37:47.770Z,25.90
2017-12-12T18:40:15.198Z,25.37
2017-12-12T18:42:42.627Z,25.60
2017-12-12T18:45:10.058Z,24.52
2017-12-12T18:47:37.477Z,26.48
2017-12-12T18:50:04.970Z,25.27
2017-12-12T18:52:32.403Z,25.45
2017-12-12T18:54:59.910Z,26.85
2017-12-12T18:57:27.402Z,25.27
2017-12-12T18:59:54.988Z,25.90
2017-12-12T19:02:23.166Z,24.73
2017-12-12T19:04:50.588Z,25.97
2017-12-12T19:07:18.025Z,25.00
2017-12-12T19:09:45.450Z,24.58
2017-12-12T19:12:12.866Z,24.92
2017-12-12T19:14:40.308Z,26.15
2017-12-12T19:17:07.722Z,24.75
2017-12-12T19:19:35.205Z,24.50
2017-12-12T19:22:02.609Z,25.90
2017-12-12T19:24:30.030Z,23.63
2017-12-12T19:26:57.437Z,25.73
2017-12-12T19:29:24.941Z,25.35
2017-12-12T19:31:52.530Z,25.62
2017-12-12T19:34:20.898Z,24.17
2017-12-12T19:36:49.300Z,24.67
2017-12-12T19:39:16.747Z,23.35
2017-12-12T19:41:44.202Z,25.80
2017-12-12T19:44:11.653Z,24.35
2017-12-12T19:46:40.034Z,24.45
2017-12-12T19:49:07.918Z,23.75
2017-12-12T19:51:35.367Z,23.80
2017-12-12T19:54:02.831Z,24.03
2017-12-12T19:56:30.259Z,24.70
2017-12-12T19:58:57.717Z,24.35
2017-12-12T20:01:25.138Z,23.83
2017-12-12T20:03:53.674Z,24.75
2017-12-12T20:06:21.123Z,23.47
2017-12-12T20:08:48.570Z,23.87
2017-12-12T20:11:16.000Z,24.02
2017-12-12T20:13:43.420Z,24.13
2017-12-12T20:16:10.865Z,23.03
2017-12-12T20:18:38.284Z,22.23
2017-12-12T20:21:05.702Z,23.23
2017-12-12T20:23:33.133Z,24.10
2017-12-12T20:26:00.566Z,22.40
2017-12-12T20:28:27.996Z,23.00
2017-12-12T20:30:55.413Z,20.23
2017-12-12T20:33:24.820Z,21.60
2017-12-12T20:35:52.237Z,21.73
2017-12-12T20:38:19.662Z,20.95
2017-12-12T20:40:47.094Z,20.25
2017-12-12T20:43:14.518Z,20.42
2017-12-12T20:45:42.530Z,20.40
2017-12-12T20:48:09.943Z,20.93
2017-12-12T20:50:37.362Z,21.03
2017-12-12T20:53:04.774Z,18.80
2017-12-12T20:55:32.218Z,19.20
2017-12-12T20:57:59.637Z,18.65
2017-12-12T21:00:27.051Z,19.87
2017-12-12T21:02:54.470Z,18.20
2017-12-12T21:05:21.882Z,17.13
2017-12-12T21:07:49.346Z,18.80
2017-12-12T21:10:16.753Z,20.23
2017-12-12T21:12:44.178Z,20.03
2017-12-12T21:15:11.582Z,20.23
2017-12-12T21:17:39.005Z,18.77
2017-12-12T21:20:06.442Z,19.05
2017-12-12T21:22:33.853Z,18.57
2017-12-12T21:25:01.279Z,17.97
2017-12-12T21:27:28.699Z,19.48
2017-12-12T21:29:56.134Z,19.50
2017-12-12T21:32:23.546Z,18.00
2017-12-12T21:34:50.984Z,18.50
2017-12-12T21:37:18.402Z,17.50
2017-12-12T21:39:45.814Z,17.53
2017-12-12T21:42:13.226Z,17.40
2017-12-12T21:44:40.650Z,16.90
2017-12-12T21:47:08.068Z,17.03
2017-12-12T21:49:35.502Z,16.10
2017-12-12T21:52:02.908Z,15.80
2017-12-12T21:54:30.338Z,16.13
2017-12-12T21:56:57.749Z,15.40
2017-12-12T21:59:25.166Z,15.30
2017-12-12T22:01:52.573Z,14.80
2017-12-12T22:04:20.010Z,15.10
2017-12-12T22:06:47.425Z,15.10
2017-12-12T22:09:14.842Z,14.82
2017-12-12T22:11:42.262Z,15.00
2017-12-12T22:14:09.686Z,15.30
2017-12-12T22:16:37.363Z,15.52
2017-12-12T22:19:04.796Z,14.38
2017-12-12T22:21:32.213Z,14.40
2017-12-12T22:23:59.628Z,14.30
2017-12-12T22:26:27.045Z,14.93
2017-12-12T22:28:54.469Z,13.88
2017-12-12T22:31:21.901Z,15.52
2017-12-12T22:33:49.344Z,15.13
2017-12-12T22:36:16.767Z,16.00
2017-12-12T22:38:44.201Z,14.20
2017-12-12T22:41:11.628Z,14.18
2017-12-12T22:43:39.051Z,15.73
2017-12-12T22:46:06.465Z,14.67
2017-12-12T22:48:33.883Z,14.40
2017-12-12T22:51:01.302Z,13.83
2017-12-12T22:53:28.719Z,14.50
2017-12-12T22:55:56.150Z,14.60
2017-12-12T22:58:23.558Z,14.70
2017-12-12T23:00:51.557Z,15.10
2017-12-12T23:03:18.991Z,15.25
2017-12-12T23:05:46.405Z,16.03
2017-12-12T23:08:13.838Z,15.00
2017-12-12T23:10:41.629Z,15.32
2017-12-12T23:13:09.059Z,14.48
2017-12-12T23:15:36.480Z,14.90
2017-12-12T23:18:03.902Z,14.90
2017-12-12T23:20:31.325Z,15.05
2017-12-12T23:22:58.753Z,14.20
2017-12-12T23:25:26.179Z,13.93
2017-12-12T23:27:53.602Z,14.38
2017-12-12T23:30:21.038Z,14.87
2017-12-12T23:32:48.474Z,13.88
2017-12-12T23:35:15.886Z,16.05
2017-12-12T23:37:43.310Z,14.40
2017-12-12T23:40:10.746Z,15.55
2017-12-12T23:42:38.167Z,15.38
2017-12-12T23:45:05.583Z,14.70
2017-12-12T23:47:33.018Z,15.48
2017-12-12T23:50:00.440Z,15.25
2017-12-12T23:52:27.917Z,16.00
2017-12-12T23:54:55.279Z,15.50
2017-12-12T23:57:22.697Z,14.98
2017-12-12T23:59:50.125Z,15.93
